MMAS/AGU METAR and TAF weather

Enter ICAO airport designator
Station Type Date Time Source
MMAS METAR 2019/06/18 16:46 UTC NOAA

MMAS 181646Z 22010KT 9SM FEW040 BKN230 25/10 A3031 RMK 8/108 HZY


Station Type Date Time Source
MMAS Decoded METAR 2019/06/18 16:46 UTC NOAA

Aguascalientes, Ags., Mexico (MMAS) 21-53N 102-18W
Jun 18, 2019 - 12:46 PM EDT / 2019.06.18 1646 UTC
Wind: from the SW (220 degrees) at 12 MPH (10 KT):0
Visibility: 9 mile(s):0
Sky conditions: mostly cloudy
Temperature: 77 F (25 C)
Dew Point: 50 F (10 C)
Relative Humidity: 38%
Pressure (altimeter): 30.31 in. Hg (1026 hPa)
ob: MMAS 181646Z 22010KT 9SM FEW040 BKN230 25/10 A3031 RMK 8/108 HZY
cycle: 17

Station Type Date Time Source
MMAS TAF 2019/06/18 18:55 UTC NOAA

TAF MMAS 181648Z 1818/1918 18010KT P6SM SCT030 BKN250
FM182200 20012KT 6SM VC RA BKN030CB
TEMPO 1823/1903 4SM TSRA
FM190400 00000KT P6SM SCT030 BKN080 OVC200 PROB40 1910/1914 5SM RA BKN020

Example: see airport list